Time;durP1;ratioP1;P1;durP2;ratioP2;P2;SDS_P1;SDS_P2;PMS_P1;PMS_P2;Temp;Humidity;BMP_temperature;BMP_pressure;BME280_temperature;BME280_humidity;BME280_pressure;Samples;Min_cycle;Max_cycle;Signal;HPM_P1;HPM_P2
2021/12/21 00:01:16;;;;;;;;;;;21.40;52.60;;;;;;4972752;28;20347;-72
2021/12/21 00:03:41;;;;;;;;;;;21.40;52.50;;;;;;4974466;28;19956;-71
2021/12/21 00:06:08;;;;;;;;;;;21.00;42.80;;;;;;4976707;28;19964;-71
2021/12/21 00:08:36;;;;;;;;;;;20.60;40.50;;;;;;4959654;28;19914;-71
2021/12/21 00:11:01;;;;;;;;;;;20.30;38.80;;;;;;4976985;28;19957;-71
2021/12/21 00:16:14;;;;;;;;;;;19.80;37.40;;;;;;4975814;28;19922;-71
2021/12/21 00:19:05;;;;;;;;;;;19.50;36.90;;;;;;4976076;28;20005;-71
2021/12/21 00:21:38;;;;;;;;;;;19.30;36.80;;;;;;4958945;28;20286;-77
2021/12/21 00:24:12;;;;;;;;;;;19.10;36.40;;;;;;4975940;28;19917;-74
2021/12/21 00:26:38;;;;;;;;;;;19.30;37.70;;;;;;4943558;28;19914;-73
2021/12/21 00:29:04;;;;;;;;;;;19.60;40.30;;;;;;4976420;28;20371;-74
2021/12/21 00:31:34;;;;;;;;;;;19.90;40.90;;;;;;4976572;28;19915;-75
2021/12/21 00:34:00;;;;;;;;;;;20.10;40.20;;;;;;4976253;28;20290;-74
2021/12/21 00:36:27;;;;;;;;;;;20.20;39.90;;;;;;4976200;28;19961;-74
2021/12/21 00:38:54;;;;;;;;;;;20.30;40.40;;;;;;4959177;28;19914;-74
2021/12/21 00:41:20;;;;;;;;;;;20.40;40.80;;;;;;4976179;28;20304;-75
2021/12/21 00:43:45;;;;;;;;;;;20.50;41.10;;;;;;4958797;28;19984;-74
2021/12/21 00:46:11;;;;;;;;;;;20.60;41.40;;;;;;4975933;28;19946;-74
2021/12/21 00:48:41;;;;;;;;;;;20.60;41.70;;;;;;4942758;28;20660;-74
2021/12/21 00:51:07;;;;;;;;;;;20.70;41.80;;;;;;4958753;28;19910;-74
2021/12/21 00:53:35;;;;;;;;;;;20.70;42.10;;;;;;4975887;28;19984;-74
2021/12/21 00:56:00;;;;;;;;;;;20.70;42.30;;;;;;4975594;28;19964;-73
2021/12/21 00:58:26;;;;;;;;;;;20.80;42.70;;;;;;4975825;28;20298;-74
2021/12/21 01:00:52;;;;;;;;;;;20.80;44.80;;;;;;4975677;28;19917;-74
2021/12/21 01:03:19;;;;;;;;;;;20.80;44.60;;;;;;4976098;28;19910;-74
2021/12/21 01:08:14;;;;;;;;;;;20.80;44.00;;;;;;4973045;28;19933;-76
2021/12/21 01:10:51;;;;;;;;;;;20.50;39.10;;;;;;4973110;28;19925;-77
2021/12/21 01:16:05;;;;;;;;;;;20.00;37.00;;;;;;4954846;28;20342;-74
2021/12/21 01:18:37;;;;;;;;;;;20.10;37.80;;;;;;4973339;28;19925;-75
2021/12/21 01:21:15;;;;;;;;;;;20.20;38.90;;;;;;4972932;28;19910;-75
2021/12/21 01:29:03;;;;;;;;;;;20.50;41.30;;;;;;4939880;28;19986;-76
2021/12/21 01:31:49;;;;;;;;;;;20.50;41.40;;;;;;4973078;28;19922;-74
2021/12/21 01:37:24;;;;;;;;;;;20.60;42.40;;;;;;4938924;28;19910;-74
2021/12/21 01:50:00;;;;;;;;;;;20.70;43.60;;;;;;4939385;28;19918;-74
2021/12/21 01:52:27;;;;;;;;;;;20.80;44.00;;;;;;4972629;28;19910;-74
2021/12/21 01:54:53;;;;;;;;;;;20.80;43.80;;;;;;4939472;28;20504;-74
2021/12/21 01:57:19;;;;;;;;;;;20.70;44.30;;;;;;4954796;28;19964;-75
2021/12/21 01:59:45;;;;;;;;;;;20.80;44.40;;;;;;4972624;28;19910;-75
2021/12/21 02:02:12;;;;;;;;;;;20.80;44.60;;;;;;4972640;28;19921;-75
2021/12/21 02:04:39;;;;;;;;;;;20.80;44.50;;;;;;4954787;28;19922;-75
2021/12/21 02:07:05;;;;;;;;;;;20.80;45.10;;;;;;4972307;28;20314;-75
2021/12/21 02:09:37;;;;;;;;;;;20.80;45.00;;;;;;4972387;28;19910;-76
2021/12/21 02:12:04;;;;;;;;;;;20.80;45.00;;;;;;4971780;28;19934;-74
2021/12/21 02:14:33;;;;;;;;;;;20.80;45.20;;;;;;4955294;28;19917;-74
2021/12/21 02:19:40;;;;;;;;;;;20.80;45.20;;;;;;4972259;28;19957;-74
2021/12/21 02:22:13;;;;;;;;;;;20.80;45.30;;;;;;4972135;28;19917;-74
2021/12/21 02:24:52;;;;;;;;;;;20.80;45.20;;;;;;4972044;28;19914;-74
2021/12/21 02:27:30;;;;;;;;;;;20.90;45.60;;;;;;4953945;28;19914;-73
2021/12/21 02:29:57;;;;;;;;;;;20.90;45.70;;;;;;4954852;28;20374;-75
2021/12/21 02:32:26;;;;;;;;;;;20.90;45.90;;;;;;4971912;28;20289;-75
2021/12/21 02:34:52;;;;;;;;;;;20.80;45.50;;;;;;4971090;28;19914;-75
2021/12/21 02:37:17;;;;;;;;;;;20.90;46.00;;;;;;4954448;28;19914;-75
2021/12/21 02:39:43;;;;;;;;;;;20.90;46.20;;;;;;4971985;28;20326;-76
2021/12/21 02:42:09;;;;;;;;;;;20.90;46.20;;;;;;4971493;28;19918;-76
2021/12/21 02:44:34;;;;;;;;;;;20.90;46.30;;;;;;4971399;28;19997;-74
2021/12/21 02:47:00;;;;;;;;;;;20.80;47.00;;;;;;4939044;28;20178;-75
2021/12/21 02:49:26;;;;;;;;;;;20.80;47.00;;;;;;4955411;28;19949;-73
2021/12/21 02:51:52;;;;;;;;;;;20.80;46.60;;;;;;4954888;28;20034;-74
2021/12/21 02:54:18;;;;;;;;;;;20.80;46.60;;;;;;4939479;28;19914;-74
2021/12/21 02:56:44;;;;;;;;;;;20.80;46.80;;;;;;4973718;28;19910;-74
2021/12/21 02:59:10;;;;;;;;;;;20.80;46.80;;;;;;4956853;28;20423;-75
2021/12/21 03:01:36;;;;;;;;;;;20.80;46.80;;;;;;4973735;28;19917;-75
2021/12/21 03:04:02;;;;;;;;;;;20.80;47.00;;;;;;4973571;28;20331;-75
2021/12/21 03:09:36;;;;;;;;;;;20.80;47.00;;;;;;4956314;28;19910;-75
2021/12/21 03:14:43;;;;;;;;;;;20.80;47.30;;;;;;4973025;28;19910;-75
2021/12/21 03:17:09;;;;;;;;;;;20.90;47.30;;;;;;4973313;28;19962;-75
2021/12/21 03:19:35;;;;;;;;;;;20.80;47.00;;;;;;4973423;28;19978;-73
2021/12/21 03:22:00;;;;;;;;;;;20.70;43.40;;;;;;4973203;28;19916;-72
2021/12/21 03:24:26;;;;;;;;;;;20.60;41.80;;;;;;4973248;28;19910;-73
2021/12/21 03:26:52;;;;;;;;;;;20.50;42.60;;;;;;4973329;28;19914;-73
2021/12/21 03:29:17;;;;;;;;;;;20.60;43.50;;;;;;4973345;28;19957;-73
2021/12/21 03:31:43;;;;;;;;;;;20.60;44.30;;;;;;4972933;28;19968;-72
2021/12/21 03:34:08;;;;;;;;;;;20.60;44.70;;;;;;4973178;28;20275;-73
2021/12/21 03:36:34;;;;;;;;;;;20.60;45.00;;;;;;4972917;28;19925;-73
2021/12/21 03:39:05;;;;;;;;;;;20.70;45.30;;;;;;4955304;28;19921;-73
2021/12/21 03:41:31;;;;;;;;;;;20.70;45.20;;;;;;4973193;28;20252;-73
2021/12/21 03:44:00;;;;;;;;;;;20.70;45.50;;;;;;4973278;28;20052;-73
2021/12/21 03:46:26;;;;;;;;;;;20.70;45.60;;;;;;4972690;28;19917;-73
2021/12/21 03:48:52;;;;;;;;;;;20.70;45.60;;;;;;4973071;28;19910;-73
2021/12/21 03:51:18;;;;;;;;;;;20.80;45.50;;;;;;4972999;28;19933;-72
2021/12/21 03:53:44;;;;;;;;;;;20.80;46.00;;;;;;4955622;28;20366;-73
2021/12/21 03:58:35;;;;;;;;;;;20.80;46.20;;;;;;4972830;28;20346;-73
2021/12/21 04:01:01;;;;;;;;;;;20.80;46.10;;;;;;4973017;28;19910;-73
2021/12/21 04:03:27;;;;;;;;;;;20.80;46.40;;;;;;4939934;28;20302;-73
2021/12/21 04:05:52;;;;;;;;;;;20.80;46.40;;;;;;4955270;28;19914;-73
2021/12/21 04:08:18;;;;;;;;;;;20.80;46.60;;;;;;4972709;28;19921;-73
2021/12/21 04:10:44;;;;;;;;;;;20.80;46.60;;;;;;4972679;28;20009;-73
2021/12/21 04:13:10;;;;;;;;;;;20.80;46.60;;;;;;4972729;28;19920;-73
2021/12/21 04:15:43;;;;;;;;;;;20.80;46.80;;;;;;4972359;28;19914;-73
2021/12/21 04:18:10;;;;;;;;;;;20.80;46.90;;;;;;4972727;28;20000;-73
2021/12/21 04:20:35;;;;;;;;;;;20.80;47.00;;;;;;4972646;28;19910;-73
2021/12/21 04:23:01;;;;;;;;;;;20.80;47.00;;;;;;4955393;28;19914;-73
2021/12/21 04:25:27;;;;;;;;;;;20.80;47.10;;;;;;4972530;28;19963;-73
2021/12/21 04:27:53;;;;;;;;;;;20.80;47.30;;;;;;4972393;28;20009;-73
2021/12/21 04:30:19;;;;;;;;;;;20.80;47.20;;;;;;4955376;28;19910;-73
2021/12/21 04:32:44;;;;;;;;;;;20.80;47.40;;;;;;4955274;28;19917;-74
2021/12/21 04:35:10;;;;;;;;;;;20.80;47.50;;;;;;4955136;28;19960;-75
2021/12/21 04:37:42;;;;;;;;;;;20.80;47.50;;;;;;4972452;28;20041;-75
2021/12/21 04:40:13;;;;;;;;;;;20.80;47.60;;;;;;4972849;28;20049;-74
2021/12/21 04:42:39;;;;;;;;;;;20.80;47.70;;;;;;4972376;28;19917;-75
2021/12/21 04:45:04;;;;;;;;;;;20.80;47.80;;;;;;4954997;28;19910;-75
2021/12/21 04:47:30;;;;;;;;;;;20.80;47.80;;;;;;4972476;28;19937;-74
2021/12/21 04:49:56;;;;;;;;;;;20.80;47.80;;;;;;4974286;28;19933;-74
2021/12/21 04:52:21;;;;;;;;;;;20.80;48.00;;;;;;4958684;28;19918;-75
2021/12/21 04:54:47;;;;;;;;;;;20.80;48.00;;;;;;4975697;28;20102;-75
2021/12/21 04:57:12;;;;;;;;;;;20.80;48.00;;;;;;4958713;28;19914;-74
2021/12/21 04:59:38;;;;;;;;;;;20.80;48.00;;;;;;4975884;28;19910;-74
2021/12/21 05:02:04;;;;;;;;;;;20.80;48.10;;;;;;4975946;28;20323;-74
2021/12/21 05:04:29;;;;;;;;;;;20.80;48.10;;;;;;4975691;28;19914;-75
2021/12/21 05:06:55;;;;;;;;;;;20.80;48.10;;;;;;4975621;28;19914;-74
2021/12/21 05:09:27;;;;;;;;;;;20.80;48.10;;;;;;4975708;28;19956;-75
2021/12/21 05:12:00;;;;;;;;;;;20.80;48.10;;;;;;4975583;28;19917;-75
2021/12/21 05:14:26;;;;;;;;;;;20.90;48.30;;;;;;4975472;28;19910;-74
2021/12/21 05:16:51;;;;;;;;;;;20.80;48.30;;;;;;4975984;28;19917;-72
2021/12/21 05:19:17;;;;;;;;;;;20.80;48.30;;;;;;4976824;28;20287;-74
2021/12/21 05:21:42;;;;;;;;;;;20.80;48.40;;;;;;4976510;28;20413;-74
2021/12/21 05:24:08;;;;;;;;;;;20.80;48.80;;;;;;4975604;28;19992;-75
2021/12/21 05:26:34;;;;;;;;;;;20.80;48.40;;;;;;4958134;28;20476;-74
2021/12/21 05:28:59;;;;;;;;;;;20.80;48.50;;;;;;4958098;28;20377;-75
2021/12/21 05:31:25;;;;;;;;;;;20.80;48.50;;;;;;4975721;28;19917;-74
2021/12/21 05:33:52;;;;;;;;;;;20.80;48.50;;;;;;4975242;28;19910;-74
2021/12/21 05:36:20;;;;;;;;;;;20.80;48.70;;;;;;4975263;28;19916;-74
2021/12/21 05:38:49;;;;;;;;;;;20.80;48.80;;;;;;4975088;28;19993;-75
2021/12/21 05:41:23;;;;;;;;;;;20.80;48.80;;;;;;4942624;28;20571;-75
2021/12/21 05:43:50;;;;;;;;;;;20.80;48.80;;;;;;4957764;28;19914;-74
2021/12/21 05:46:15;;;;;;;;;;;20.80;48.80;;;;;;4974902;28;20466;-75
2021/12/21 05:48:41;;;;;;;;;;;20.80;48.80;;;;;;4955233;28;20001;-75
2021/12/21 05:51:06;;;;;;;;;;;20.80;48.90;;;;;;4955309;29;19911;-74
2021/12/21 05:53:32;;;;;;;;;;;20.80;48.90;;;;;;4954295;29;20009;-74
2021/12/21 05:55:58;;;;;;;;;;;20.80;49.00;;;;;;4955369;29;19917;-75
2021/12/21 05:58:23;;;;;;;;;;;20.80;49.00;;;;;;4938456;29;19910;-74
2021/12/21 06:00:49;;;;;;;;;;;20.80;49.00;;;;;;4937831;29;19969;-74
2021/12/21 06:03:15;;;;;;;;;;;20.80;49.10;;;;;;4938397;29;19910;-75
2021/12/21 06:05:40;;;;;;;;;;;20.80;49.10;;;;;;4938337;29;20314;-75
2021/12/21 06:08:06;;;;;;;;;;;20.80;49.10;;;;;;4938093;29;19914;-75
2021/12/21 06:10:36;;;;;;;;;;;20.80;49.20;;;;;;4938267;29;19917;-76
2021/12/21 06:13:26;;;;;;;;;;;20.80;49.10;;;;;;4955281;28;19991;-75
2021/12/21 06:26:13;;;;;;;;;;;20.80;49.30;;;;;;4970909;28;19914;-78
2021/12/21 06:28:39;;;;;;;;;;;20.90;49.40;;;;;;4922340;29;19915;-77
2021/12/21 06:31:05;;;;;;;;;;;20.80;49.30;;;;;;4955430;28;19911;-77
2021/12/21 06:33:31;;;;;;;;;;;20.90;49.30;;;;;;4955202;28;19944;-76
2021/12/21 06:35:57;;;;;;;;;;;20.80;49.40;;;;;;4955034;29;19910;-76
2021/12/21 06:38:23;;;;;;;;;;;20.80;49.30;;;;;;4955360;28;19952;-76
2021/12/21 06:40:49;;;;;;;;;;;20.80;49.40;;;;;;4955041;28;19933;-76
2021/12/21 06:43:16;;;;;;;;;;;20.80;49.50;;;;;;4955346;28;20379;-77
2021/12/21 06:45:47;;;;;;;;;;;20.80;49.50;;;;;;4937751;29;19918;-76
2021/12/21 06:53:48;;;;;;;;;;;20.80;49.60;;;;;;4954954;29;19944;-77
2021/12/21 06:56:14;;;;;;;;;;;20.80;49.70;;;;;;4937476;29;19949;-77
2021/12/21 06:58:40;;;;;;;;;;;20.80;49.70;;;;;;4937799;29;19918;-77
2021/12/21 07:01:06;;;;;;;;;;;20.80;49.70;;;;;;4954605;29;19911;-77
2021/12/21 07:03:32;;;;;;;;;;;20.80;49.80;;;;;;4954650;29;19950;-77
2021/12/21 07:06:03;;;;;;;;;;;20.80;49.80;;;;;;4954322;29;19917;-78
2021/12/21 07:08:31;;;;;;;;;;;20.80;49.80;;;;;;4937591;29;19921;-77
2021/12/21 07:19:00;;;;;;;;;;;20.80;50.00;;;;;;4954810;29;19961;-76
2021/12/21 07:21:26;;;;;;;;;;;20.80;49.80;;;;;;4921512;29;19914;-77
2021/12/21 07:23:51;;;;;;;;;;;20.80;50.00;;;;;;4954100;28;20001;-76
2021/12/21 07:26:17;;;;;;;;;;;20.80;49.90;;;;;;4953663;28;20004;-77
2021/12/21 07:28:43;;;;;;;;;;;20.80;49.90;;;;;;4921773;29;20363;-76
2021/12/21 07:31:09;;;;;;;;;;;20.80;49.90;;;;;;4937109;29;19918;-77
2021/12/21 07:33:34;;;;;;;;;;;20.80;50.60;;;;;;4954125;29;19910;-77
2021/12/21 07:36:00;;;;;;;;;;;20.80;50.10;;;;;;4921208;29;19915;-77
2021/12/21 07:38:30;;;;;;;;;;;20.80;50.10;;;;;;4954537;28;20273;-76
2021/12/21 07:40:57;;;;;;;;;;;20.80;50.10;;;;;;4921569;29;19949;-76
2021/12/21 07:43:23;;;;;;;;;;;20.80;50.20;;;;;;4954139;29;20348;-77
2021/12/21 07:45:49;;;;;;;;;;;20.80;50.20;;;;;;4953917;29;19911;-77
2021/12/21 07:48:14;;;;;;;;;;;20.80;50.20;;;;;;4953894;28;19969;-76
2021/12/21 07:50:40;;;;;;;;;;;20.80;50.10;;;;;;4953891;28;20425;-77
2021/12/21 07:53:06;;;;;;;;;;;20.80;50.10;;;;;;4936935;29;19973;-77
2021/12/21 07:55:32;;;;;;;;;;;20.90;50.30;;;;;;4936409;29;19914;-77
2021/12/21 07:57:57;;;;;;;;;;;20.80;50.20;;;;;;4936793;29;20407;-76
2021/12/21 08:00:23;;;;;;;;;;;20.80;50.20;;;;;;4953902;29;20355;-76
2021/12/21 08:02:49;;;;;;;;;;;20.80;50.30;;;;;;4953668;29;19910;-76
2021/12/21 08:05:14;;;;;;;;;;;20.80;50.30;;;;;;4953594;29;20005;-77
2021/12/21 08:07:52;;;;;;;;;;;20.80;50.30;;;;;;4953955;29;19919;-77
2021/12/21 08:10:25;;;;;;;;;;;20.80;50.40;;;;;;4936866;29;19933;-77
2021/12/21 08:12:50;;;;;;;;;;;20.70;50.40;;;;;;4936651;29;20372;-77
2021/12/21 08:15:16;;;;;;;;;;;20.80;50.40;;;;;;4953507;28;19910;-77
2021/12/21 08:17:42;;;;;;;;;;;20.80;50.40;;;;;;4954251;28;20287;-77
2021/12/21 08:20:08;;;;;;;;;;;20.80;50.40;;;;;;4936833;29;19950;-77
2021/12/21 08:22:33;;;;;;;;;;;20.80;50.50;;;;;;4936364;29;19910;-77
2021/12/21 08:24:59;;;;;;;;;;;20.80;50.50;;;;;;4955675;28;19918;-77
2021/12/21 08:27:24;;;;;;;;;;;20.80;50.60;;;;;;4957387;28;19921;-77
2021/12/21 08:29:50;;;;;;;;;;;20.80;50.50;;;;;;4957491;29;19914;-77
2021/12/21 08:32:16;;;;;;;;;;;20.80;50.60;;;;;;4957191;28;19964;-77
2021/12/21 08:34:42;;;;;;;;;;;20.80;50.60;;;;;;4957018;28;19917;-77
2021/12/21 08:37:07;;;;;;;;;;;20.80;50.60;;;;;;4957203;29;19911;-77
2021/12/21 08:39:39;;;;;;;;;;;20.80;50.40;;;;;;4957197;29;19933;-77
2021/12/21 08:42:06;;;;;;;;;;;20.80;50.70;;;;;;4957305;29;19910;-77
2021/12/21 08:44:32;;;;;;;;;;;20.80;50.70;;;;;;4956680;29;20371;-77
2021/12/21 08:46:58;;;;;;;;;;;20.80;50.70;;;;;;4956966;28;19921;-77
2021/12/21 08:49:24;;;;;;;;;;;20.80;50.80;;;;;;4940163;29;19918;-77
2021/12/21 08:51:50;;;;;;;;;;;20.80;50.80;;;;;;4939817;29;19910;-77
2021/12/21 08:54:16;;;;;;;;;;;20.80;50.80;;;;;;4956664;28;19961;-77
2021/12/21 08:56:42;;;;;;;;;;;20.80;50.70;;;;;;4939992;29;20383;-77
2021/12/21 08:59:07;;;;;;;;;;;20.70;50.80;;;;;;4939852;29;19917;-78
2021/12/21 09:01:33;;;;;;;;;;;20.80;50.90;;;;;;4957007;28;20017;-78
2021/12/21 09:03:59;;;;;;;;;;;20.80;50.90;;;;;;4939696;29;19914;-78
2021/12/21 09:06:25;;;;;;;;;;;20.80;50.90;;;;;;4939312;29;19910;-78
2021/12/21 09:08:50;;;;;;;;;;;20.80;50.90;;;;;;4956885;29;19915;-78
2021/12/21 09:11:16;;;;;;;;;;;20.80;50.80;;;;;;4939975;29;19972;-78
2021/12/21 09:13:41;;;;;;;;;;;20.80;50.80;;;;;;4956558;28;19918;-78
2021/12/21 09:16:07;;;;;;;;;;;20.80;50.80;;;;;;4956528;29;19917;-77
2021/12/21 09:18:33;;;;;;;;;;;20.80;50.70;;;;;;4956359;28;19910;-77
2021/12/21 09:20:58;;;;;;;;;;;20.90;50.80;;;;;;4956546;28;19961;-78
2021/12/21 09:23:24;;;;;;;;;;;20.80;50.70;;;;;;4956131;28;19914;-77
2021/12/21 09:25:50;;;;;;;;;;;20.80;51.40;;;;;;4956100;29;19957;-78
2021/12/21 09:28:15;;;;;;;;;;;20.80;51.00;;;;;;4939012;29;20001;-78
2021/12/21 09:30:41;;;;;;;;;;;20.80;51.00;;;;;;4956575;29;19961;-78
2021/12/21 09:33:07;;;;;;;;;;;20.80;51.00;;;;;;4939188;29;19910;-77
2021/12/21 09:35:33;;;;;;;;;;;20.80;51.00;;;;;;4955217;28;19911;-78
2021/12/21 09:37:58;;;;;;;;;;;20.80;51.10;;;;;;4938909;29;19933;-78
2021/12/21 09:40:27;;;;;;;;;;;20.80;51.10;;;;;;4939273;29;19910;-78
2021/12/21 09:42:53;;;;;;;;;;;20.80;51.00;;;;;;4938780;29;19915;-78
2021/12/21 09:45:19;;;;;;;;;;;20.70;51.00;;;;;;4938622;29;19958;-78
2021/12/21 09:47:45;;;;;;;;;;;20.80;51.10;;;;;;4938985;29;19927;-78
2021/12/21 09:50:12;;;;;;;;;;;20.70;51.10;;;;;;4956309;28;19937;-78
2021/12/21 09:52:38;;;;;;;;;;;20.80;51.20;;;;;;4956279;29;19914;-78
2021/12/21 09:55:05;;;;;;;;;;;20.80;51.20;;;;;;4938618;29;19985;-78
2021/12/21 09:57:31;;;;;;;;;;;20.80;51.20;;;;;;4939326;29;19925;-78
2021/12/21 10:00:00;;;;;;;;;;;20.80;51.10;;;;;;4938907;29;19911;-77
2021/12/21 10:02:34;;;;;;;;;;;20.80;51.20;;;;;;4939583;29;19910;-78
2021/12/21 10:05:09;;;;;;;;;;;20.70;51.20;;;;;;4922673;29;20333;-77
2021/12/21 10:07:35;;;;;;;;;;;20.80;51.30;;;;;;4923050;29;20379;-76
2021/12/21 10:10:14;;;;;;;;;;;20.80;51.30;;;;;;4922986;29;19916;-79
2021/12/21 10:12:45;;;;;;;;;;;20.80;51.20;;;;;;4938914;29;19977;-78
2021/12/21 10:15:15;;;;;;;;;;;20.80;51.30;;;;;;4938498;29;19961;-77
2021/12/21 10:17:48;;;;;;;;;;;20.80;51.40;;;;;;4956197;29;20268;-79
2021/12/21 10:20:14;;;;;;;;;;;20.70;51.50;;;;;;4955269;28;20379;-78
2021/12/21 10:22:48;;;;;;;;;;;20.80;51.20;;;;;;4938445;29;19938;-79
2021/12/21 10:25:26;;;;;;;;;;;20.80;51.20;;;;;;4922546;29;19918;-78
2021/12/21 10:27:52;;;;;;;;;;;20.90;51.20;;;;;;4954079;28;19919;-77
2021/12/21 10:30:18;;;;;;;;;;;20.80;48.90;;;;;;4955903;29;19957;-77
2021/12/21 10:32:51;;;;;;;;;;;20.50;41.10;;;;;;4954211;29;19914;-77
2021/12/21 10:35:17;;;;;;;;;;;20.10;38.00;;;;;;4938877;29;20001;-76
2021/12/21 10:37:48;;;;;;;;;;;19.90;37.20;;;;;;4954508;29;19993;-76
2021/12/21 10:40:21;;;;;;;;;;;19.60;37.30;;;;;;4938138;29;19965;-77
2021/12/21 10:42:57;;;;;;;;;;;19.30;36.50;;;;;;4956353;28;19911;-76
2021/12/21 10:45:24;;;;;;;;;;;19.10;36.40;;;;;;4956802;28;19945;-76
2021/12/21 10:47:50;;;;;;;;;;;18.90;36.50;;;;;;4956866;28;19921;-77
2021/12/21 10:50:19;;;;;;;;;;;18.90;37.20;;;;;;4957308;28;19909;-79
2021/12/21 10:52:51;;;;;;;;;;;18.80;37.30;;;;;;4974826;28;19914;-80
2021/12/21 10:55:44;;;;;;;;;;;19.00;38.00;;;;;;4957824;28;19937;-80
2021/12/21 10:58:11;;;;;;;;;;;19.20;39.50;;;;;;4955890;28;19910;-77
2021/12/21 11:00:38;;;;;;;;;;;19.50;39.40;;;;;;4957044;28;19960;-79
2021/12/21 11:03:05;;;;;;;;;;;19.60;40.10;;;;;;4941160;28;19925;-78
2021/12/21 11:05:30;;;;;;;;;;;19.70;40.30;;;;;;4974011;28;19914;-78
2021/12/21 11:08:03;;;;;;;;;;;19.80;40.90;;;;;;4957984;28;20022;-79
2021/12/21 11:10:35;;;;;;;;;;;19.90;41.50;;;;;;4975536;28;19910;-77
2021/12/21 11:13:05;;;;;;;;;;;20.00;41.30;;;;;;4976501;28;19913;-77
2021/12/21 11:15:35;;;;;;;;;;;20.00;41.40;;;;;;4974718;28;19990;-77
2021/12/21 11:18:06;;;;;;;;;;;20.10;41.80;;;;;;4957947;28;20012;-78
2021/12/21 11:20:32;;;;;;;;;;;20.00;41.00;;;;;;4959375;28;19960;-77
2021/12/21 11:22:57;;;;;;;;;;;20.00;41.50;;;;;;4976729;28;19910;-77
2021/12/21 11:25:23;;;;;;;;;;;20.00;41.30;;;;;;4979579;28;19913;-77
2021/12/21 11:27:50;;;;;;;;;;;20.10;41.90;;;;;;4960544;28;19918;-78
2021/12/21 11:30:21;;;;;;;;;;;20.10;42.20;;;;;;4975083;28;19910;-78
2021/12/21 11:32:48;;;;;;;;;;;20.10;42.50;;;;;;4985736;28;19910;-77
2021/12/21 11:37:44;;;;;;;;;;;20.20;42.90;;;;;;4974149;28;19910;-78
2021/12/21 11:40:12;;;;;;;;;;;20.20;43.10;;;;;;4956645;28;19910;-78
2021/12/21 11:42:43;;;;;;;;;;;20.20;43.20;;;;;;4973649;28;19917;-78
2021/12/21 11:45:16;;;;;;;;;;;20.20;43.40;;;;;;4973325;28;19910;-78
2021/12/21 11:47:48;;;;;;;;;;;20.30;43.50;;;;;;4956333;28;19921;-78
2021/12/21 11:50:13;;;;;;;;;;;20.30;43.70;;;;;;4956421;28;19910;-78
2021/12/21 11:52:47;;;;;;;;;;;20.30;43.70;;;;;;4956379;28;20512;-78
2021/12/21 11:55:13;;;;;;;;;;;20.30;43.80;;;;;;4973192;28;19950;-78
2021/12/21 11:57:41;;;;;;;;;;;20.30;43.90;;;;;;4955785;28;19910;-77
2021/12/21 12:00:14;;;;;;;;;;;20.30;43.80;;;;;;4972416;28;19910;-77
2021/12/21 12:02:42;;;;;;;;;;;20.40;44.10;;;;;;4941104;28;19910;-77
2021/12/21 12:05:25;;;;;;;;;;;20.40;44.30;;;;;;4944383;28;19910;-77
2021/12/21 12:08:07;;;;;;;;;;;20.40;44.20;;;;;;4942515;28;19918;-77
2021/12/21 12:10:37;;;;;;;;;;;20.40;44.20;;;;;;4976775;28;20359;-78
2021/12/21 12:13:11;;;;;;;;;;;20.40;44.60;;;;;;4958910;28;19913;-78
2021/12/21 12:15:43;;;;;;;;;;;20.40;44.70;;;;;;4958732;28;19961;-78
2021/12/21 12:18:18;;;;;;;;;;;20.40;44.70;;;;;;4959000;28;19921;-77
2021/12/21 12:20:44;;;;;;;;;;;20.40;44.90;;;;;;4975774;28;20393;-79
2021/12/21 12:23:13;;;;;;;;;;;20.40;45.00;;;;;;4957693;23;19909;-76
2021/12/21 12:25:47;;;;;;;;;;;20.40;45.10;;;;;;4923582;28;20019;-75
2021/12/21 12:28:20;;;;;;;;;;;20.40;44.90;;;;;;4943655;28;19914;-75
2021/12/21 12:30:47;;;;;;;;;;;20.40;45.10;;;;;;4953346;29;19917;-75
2021/12/21 12:33:13;;;;;;;;;;;20.40;45.00;;;;;;4953419;29;19910;-75
2021/12/21 12:35:41;;;;;;;;;;;20.40;45.20;;;;;;4952871;28;19961;-76
2021/12/21 12:38:15;;;;;;;;;;;20.40;45.40;;;;;;4936228;29;19934;-76
2021/12/21 12:40:45;;;;;;;;;;;20.40;45.30;;;;;;4953069;29;20375;-75
2021/12/21 12:43:27;;;;;;;;;;;20.40;45.60;;;;;;4936277;29;19915;-76
2021/12/21 12:45:53;;;;;;;;;;;20.40;45.70;;;;;;4952805;28;19910;-76
2021/12/21 12:48:20;;;;;;;;;;;20.40;45.60;;;;;;4935949;29;19914;-75
2021/12/21 12:50:47;;;;;;;;;;;20.40;45.40;;;;;;4953154;29;19910;-76
2021/12/21 12:53:12;;;;;;;;;;;20.50;46.10;;;;;;4936159;29;20379;-75
2021/12/21 12:55:43;;;;;;;;;;;20.40;46.60;;;;;;4952674;29;19917;-75
2021/12/21 12:58:14;;;;;;;;;;;20.50;46.20;;;;;;4950854;28;19910;-74
2021/12/21 13:00:41;;;;;;;;;;;20.50;46.40;;;;;;4935601;29;19910;-75
2021/12/21 13:03:08;;;;;;;;;;;20.50;46.60;;;;;;4953135;28;19910;-74
2021/12/21 13:05:38;;;;;;;;;;;20.50;46.50;;;;;;4952527;28;19917;-74
2021/12/21 13:08:09;;;;;;;;;;;20.50;46.50;;;;;;4953101;28;19982;-74
2021/12/21 13:10:36;;;;;;;;;;;20.50;46.50;;;;;;4953005;28;20018;-74
2021/12/21 13:13:02;;;;;;;;;;;20.60;47.10;;;;;;4939387;29;19914;-74
2021/12/21 13:15:35;;;;;;;;;;;20.50;47.00;;;;;;4956086;28;19917;-74
2021/12/21 13:18:01;;;;;;;;;;;20.60;47.40;;;;;;4956454;28;20286;-74
2021/12/21 13:20:27;;;;;;;;;;;20.50;47.70;;;;;;4956189;29;19993;-74
2021/12/21 13:22:52;;;;;;;;;;;20.60;47.40;;;;;;4956273;28;19997;-79
2021/12/21 13:25:18;;;;;;;;;;;20.60;47.40;;;;;;4936842;29;20259;-74
2021/12/21 13:27:44;;;;;;;;;;;20.50;47.10;;;;;;4955757;29;19918;-74
2021/12/21 13:30:10;;;;;;;;;;;20.50;45.00;;;;;;4939009;29;20294;-74
2021/12/21 13:32:36;;;;;;;;;;;20.40;44.90;;;;;;4956187;29;19910;-74
2021/12/21 13:35:02;;;;;;;;;;;20.40;45.60;;;;;;4938607;29;20271;-74
2021/12/21 13:37:29;;;;;;;;;;;20.40;46.20;;;;;;4956202;29;20000;-75
2021/12/21 13:39:57;;;;;;;;;;;20.50;46.20;;;;;;4955786;28;20287;-75
2021/12/21 13:42:24;;;;;;;;;;;20.50;47.50;;;;;;4955918;28;19910;-74
2021/12/21 13:44:50;;;;;;;;;;;20.60;48.30;;;;;;4955701;29;20330;-75
2021/12/21 13:47:15;;;;;;;;;;;20.60;49.10;;;;;;4955916;29;20008;-74
2021/12/21 13:49:54;;;;;;;;;;;20.70;49.10;;;;;;4938605;29;19910;-75
2021/12/21 13:52:21;;;;;;;;;;;20.70;51.10;;;;;;4956032;29;20305;-76
2021/12/21 13:54:46;;;;;;;;;;;20.70;53.40;;;;;;4955288;29;20433;-75
2021/12/21 13:57:16;;;;;;;;;;;20.80;55.10;;;;;;4955897;28;19910;-75
2021/12/21 13:59:41;;;;;;;;;;;20.80;55.60;;;;;;4955793;28;19917;-74
2021/12/21 14:02:16;;;;;;;;;;;20.80;51.50;;;;;;4955691;28;19918;-74
2021/12/21 14:04:50;;;;;;;;;;;20.80;54.10;;;;;;4953050;28;19965;-74
2021/12/21 14:07:16;;;;;;;;;;;20.80;51.80;;;;;;4938165;29;19914;-74
2021/12/21 14:09:42;;;;;;;;;;;20.70;51.30;;;;;;4955259;29;19917;-75
2021/12/21 14:12:12;;;;;;;;;;;20.70;51.40;;;;;;4954923;28;19945;-75
2021/12/21 14:14:38;;;;;;;;;;;20.60;49.90;;;;;;4954257;28;19917;-75
2021/12/21 14:17:10;;;;;;;;;;;20.60;50.20;;;;;;4955194;28;19914;-75
2021/12/21 14:19:36;;;;;;;;;;;20.60;49.50;;;;;;4938039;29;19993;-74
2021/12/21 14:22:02;;;;;;;;;;;20.60;49.40;;;;;;4954588;28;20387;-75
2021/12/21 14:24:30;;;;;;;;;;;20.60;49.20;;;;;;4954737;28;19915;-74
2021/12/21 14:27:03;;;;;;;;;;;20.50;48.90;;;;;;4955048;29;20357;-75
2021/12/21 14:29:30;;;;;;;;;;;20.50;48.70;;;;;;4954929;29;19952;-75
2021/12/21 14:34:35;;;;;;;;;;;20.50;48.50;;;;;;4954686;29;20010;-76
2021/12/21 14:37:02;;;;;;;;;;;20.50;48.20;;;;;;4954887;29;19921;-76
2021/12/21 14:39:29;;;;;;;;;;;20.50;48.20;;;;;;4959975;28;19914;-75
2021/12/21 14:42:00;;;;;;;;;;;20.50;47.90;;;;;;4937812;29;19993;-76
2021/12/21 14:44:27;;;;;;;;;;;20.40;47.70;;;;;;4937154;29;19965;-76
2021/12/21 14:47:05;;;;;;;;;;;20.40;47.30;;;;;;4954651;28;19936;-75
2021/12/21 14:49:50;;;;;;;;;;;20.40;47.40;;;;;;4954603;29;19937;-74
2021/12/21 14:52:24;;;;;;;;;;;20.40;47.20;;;;;;4954762;28;19914;-75
2021/12/21 14:54:59;;;;;;;;;;;20.40;47.00;;;;;;4954176;29;19910;-75
2021/12/21 14:58:00;;;;;;;;;;;20.40;47.00;;;;;;4921435;29;20287;-75
2021/12/21 15:00:38;;;;;;;;;;;20.40;46.90;;;;;;4942941;29;20009;-75
2021/12/21 15:03:07;;;;;;;;;;;20.50;46.80;;;;;;4937434;29;19910;-76
2021/12/21 15:05:34;;;;;;;;;;;20.40;46.90;;;;;;4953768;29;19918;-76
2021/12/21 15:08:01;;;;;;;;;;;20.50;46.60;;;;;;4937160;29;19925;-75
2021/12/21 15:10:28;;;;;;;;;;;20.50;46.60;;;;;;4954223;29;19918;-76
2021/12/21 15:12:54;;;;;;;;;;;20.40;46.60;;;;;;4937230;29;19961;-74
2021/12/21 15:15:21;;;;;;;;;;;20.50;46.50;;;;;;4936890;29;19910;-75
2021/12/21 15:17:48;;;;;;;;;;;20.40;46.20;;;;;;4954095;28;20013;-76
2021/12/21 15:20:14;;;;;;;;;;;20.40;46.20;;;;;;4936749;29;19911;-74
2021/12/21 15:22:40;;;;;;;;;;;20.50;46.20;;;;;;4954137;28;20008;-75
2021/12/21 15:25:07;;;;;;;;;;;20.50;47.80;;;;;;4953642;29;20001;-75
2021/12/21 15:27:33;;;;;;;;;;;20.60;46.90;;;;;;4953899;29;19914;-75